Time;durP1;ratioP1;P1;durP2;ratioP2;P2;SDS_P1;SDS_P2;PMS_P1;PMS_P2;Temp;Humidity;BMP_temperature;BMP_pressure;BME280_temperature;BME280_humidity;BME280_pressure;Samples;Min_cycle;Max_cycle;Signal;HPM_P1;HPM_P2
2022/09/25 03:00:59;;;;;;;;;;;19.80;46.90;;;;;;5641186;23;44680;-61
2022/09/25 03:03:25;;;;;;;;;;;19.80;47.00;;;;;;4875770;28;45603;-61
2022/09/25 03:05:50;;;;;;;;;;;19.70;47.00;;;;;;4892688;28;45188;-61
2022/09/25 03:11:00;;;;;;;;;;;19.70;47.00;;;;;;4908995;28;45038;-60
2022/09/25 03:13:30;;;;;;;;;;;19.70;47.00;;;;;;4884140;28;45399;-61
2022/09/25 03:16:04;;;;;;;;;;;19.70;47.00;;;;;;4898467;28;45408;-61
2022/09/25 03:18:30;;;;;;;;;;;19.80;47.00;;;;;;4894660;28;45926;-61
2022/09/25 03:20:56;;;;;;;;;;;19.70;47.00;;;;;;4897638;28;45646;-61
2022/09/25 03:23:21;;;;;;;;;;;19.70;47.00;;;;;;4899699;28;45655;-60
2022/09/25 03:25:47;;;;;;;;;;;19.70;47.00;;;;;;4899404;28;45381;-60
2022/09/25 03:28:12;;;;;;;;;;;19.80;47.00;;;;;;4900447;28;46929;-60
2022/09/25 03:30:39;;;;;;;;;;;19.80;47.00;;;;;;4896717;28;45411;-59
2022/09/25 03:33:06;;;;;;;;;;;19.70;46.90;;;;;;4887066;28;45875;-61
2022/09/25 03:35:31;;;;;;;;;;;19.80;46.90;;;;;;4887228;28;45422;-61
2022/09/25 03:37:57;;;;;;;;;;;19.80;46.90;;;;;;4869050;28;46998;-61
2022/09/25 03:40:23;;;;;;;;;;;19.80;46.90;;;;;;4884833;28;45628;-60
2022/09/25 03:42:48;;;;;;;;;;;19.80;47.00;;;;;;4886950;28;45813;-59
2022/09/25 03:45:14;;;;;;;;;;;19.70;47.00;;;;;;4888450;28;44799;-61
2022/09/25 03:47:40;;;;;;;;;;;19.70;47.00;;;;;;4888067;28;46481;-60
2022/09/25 03:50:07;;;;;;;;;;;19.70;47.00;;;;;;4887365;28;45761;-60
2022/09/25 03:52:33;;;;;;;;;;;19.70;47.00;;;;;;4889810;28;45494;-62
2022/09/25 03:54:58;;;;;;;;;;;19.70;47.00;;;;;;4886645;28;45646;-62
2022/09/25 03:57:24;;;;;;;;;;;19.70;47.00;;;;;;4885950;28;46901;-61
2022/09/25 03:59:50;;;;;;;;;;;19.70;47.00;;;;;;4888182;28;46239;-62
2022/09/25 04:02:16;;;;;;;;;;;19.70;47.00;;;;;;4896060;28;44768;-61
2022/09/25 04:04:41;;;;;;;;;;;19.70;46.90;;;;;;4900954;28;45731;-61
2022/09/25 04:07:07;;;;;;;;;;;19.70;46.90;;;;;;4894430;28;46682;-61
2022/09/25 04:09:33;;;;;;;;;;;19.70;46.90;;;;;;4898246;28;45547;-61
2022/09/25 04:11:59;;;;;;;;;;;19.70;47.00;;;;;;4897283;28;45261;-61
2022/09/25 04:14:24;;;;;;;;;;;19.70;47.00;;;;;;4899203;28;45623;-60
2022/09/25 04:16:50;;;;;;;;;;;19.70;47.00;;;;;;4898916;28;46120;-61
2022/09/25 04:19:16;;;;;;;;;;;19.70;47.00;;;;;;4897867;28;45679;-62
2022/09/25 04:21:41;;;;;;;;;;;19.70;47.00;;;;;;4897895;28;44694;-62
2022/09/25 04:26:52;;;;;;;;;;;19.70;47.00;;;;;;4896414;28;45586;-61
2022/09/25 04:29:18;;;;;;;;;;;19.70;47.10;;;;;;4892924;28;45600;-61
2022/09/25 04:33:44;;;;;;;;;;;19.70;47.10;;;;;;4899221;28;45535;-61
2022/09/25 04:34:29;;;;;;;;;;;19.70;47.10;;;;;;4898030;28;45551;-62
2022/09/25 04:36:55;;;;;;;;;;;19.70;47.10;;;;;;4898518;28;45787;-61
2022/09/25 04:39:20;;;;;;;;;;;19.70;47.10;;;;;;4898197;28;44697;-61
2022/09/25 04:41:46;;;;;;;;;;;19.70;47.00;;;;;;4897722;28;45304;-61
2022/09/25 04:44:12;;;;;;;;;;;19.70;47.00;;;;;;4899715;28;45329;-61
2022/09/25 04:46:37;;;;;;;;;;;19.70;47.00;;;;;;4898968;28;46143;-62
2022/09/25 04:49:03;;;;;;;;;;;19.70;47.00;;;;;;4895587;28;45496;-61
2022/09/25 04:51:28;;;;;;;;;;;19.70;47.00;;;;;;4899364;28;45764;-61
2022/09/25 04:53:55;;;;;;;;;;;19.70;47.00;;;;;;4896487;28;46060;-62
2022/09/25 04:56:20;;;;;;;;;;;19.70;47.00;;;;;;4881652;28;46148;-61
2022/09/25 04:58:46;;;;;;;;;;;19.70;47.00;;;;;;4896887;28;45416;-62
2022/09/25 05:01:11;;;;;;;;;;;19.70;47.00;;;;;;4896990;28;45313;-60
2022/09/25 05:03:37;;;;;;;;;;;19.70;47.00;;;;;;4889258;28;45128;-60
2022/09/25 05:06:02;;;;;;;;;;;19.70;47.00;;;;;;4888631;28;46075;-62
2022/09/25 05:08:28;;;;;;;;;;;19.70;47.50;;;;;;4891914;28;45804;-60
2022/09/25 05:10:53;;;;;;;;;;;19.70;47.00;;;;;;4894458;28;44862;-62
2022/09/25 05:13:19;;;;;;;;;;;19.70;47.00;;;;;;4894009;28;45650;-61
2022/09/25 05:15:44;;;;;;;;;;;19.70;47.00;;;;;;4891454;28;46648;-62
2022/09/25 05:18:15;;;;;;;;;;;19.70;47.00;;;;;;4892898;28;45749;-60
2022/09/25 05:20:40;;;;;;;;;;;19.70;47.00;;;;;;4893736;28;45212;-61
2022/09/25 05:23:06;;;;;;;;;;;19.70;47.00;;;;;;4893625;28;45298;-62
2022/09/25 05:25:31;;;;;;;;;;;19.70;47.00;;;;;;4891850;28;46178;-61
2022/09/25 05:27:57;;;;;;;;;;;19.70;47.00;;;;;;4891449;28;45598;-61
2022/09/25 05:30:26;;;;;;;;;;;19.70;47.00;;;;;;4894180;28;45238;-61
2022/09/25 05:32:51;;;;;;;;;;;19.70;47.10;;;;;;4893913;28;45240;-61
2022/09/25 05:35:17;;;;;;;;;;;19.70;47.00;;;;;;4886669;28;45808;-61
2022/09/25 05:37:43;;;;;;;;;;;19.70;47.00;;;;;;4889297;28;45297;-62
2022/09/25 05:40:08;;;;;;;;;;;19.70;47.00;;;;;;4890503;28;45569;-61
2022/09/25 05:42:34;;;;;;;;;;;19.70;47.00;;;;;;4888272;28;45051;-62
2022/09/25 05:44:59;;;;;;;;;;;19.70;47.10;;;;;;4891969;28;46020;-61
2022/09/25 05:47:25;;;;;;;;;;;19.70;47.00;;;;;;4892580;28;45419;-61
2022/09/25 05:49:50;;;;;;;;;;;19.70;47.10;;;;;;4891860;28;45771;-62
2022/09/25 05:52:16;;;;;;;;;;;19.70;47.10;;;;;;4892855;28;45171;-61
2022/09/25 05:54:42;;;;;;;;;;;19.60;47.10;;;;;;4887457;28;46316;-62
2022/09/25 05:57:07;;;;;;;;;;;19.60;47.10;;;;;;4891145;28;46254;-60
2022/09/25 05:59:33;;;;;;;;;;;19.70;47.10;;;;;;4892200;28;45655;-61
2022/09/25 06:01:59;;;;;;;;;;;19.60;47.10;;;;;;4891767;28;45867;-61
2022/09/25 06:04:25;;;;;;;;;;;19.60;47.10;;;;;;4891164;28;47011;-61
2022/09/25 06:06:51;;;;;;;;;;;19.70;47.10;;;;;;4890652;28;45013;-62
2022/09/25 06:09:17;;;;;;;;;;;19.60;47.10;;;;;;4890409;28;45193;-61
2022/09/25 06:11:46;;;;;;;;;;;19.60;47.10;;;;;;4893473;28;45632;-61
2022/09/25 06:14:15;;;;;;;;;;;19.60;47.10;;;;;;4894375;28;46089;-62
2022/09/25 06:16:40;;;;;;;;;;;19.60;47.10;;;;;;4017193;28;10000483;-61
2022/09/25 06:19:06;;;;;;;;;;;19.60;47.10;;;;;;4876124;29;44970;-61
2022/09/25 06:21:32;;;;;;;;;;;19.60;47.10;;;;;;4876644;28;45905;-60
2022/09/25 06:23:57;;;;;;;;;;;19.60;47.10;;;;;;4875751;29;45516;-61
2022/09/25 06:26:24;;;;;;;;;;;19.60;47.10;;;;;;4875570;29;45811;-61
2022/09/25 06:28:50;;;;;;;;;;;19.70;47.10;;;;;;4877533;29;46845;-62
2022/09/25 06:31:15;;;;;;;;;;;19.70;47.00;;;;;;4871757;29;45289;-62
2022/09/25 06:33:42;;;;;;;;;;;19.70;47.00;;;;;;4875535;29;45383;-62
2022/09/25 06:36:08;;;;;;;;;;;19.70;47.00;;;;;;4877446;29;45502;-62
2022/09/25 06:38:33;;;;;;;;;;;19.70;46.90;;;;;;4879030;29;46517;-62
2022/09/25 06:40:59;;;;;;;;;;;19.70;46.90;;;;;;4876854;29;45702;-62
2022/09/25 06:43:24;;;;;;;;;;;19.70;47.00;;;;;;4888370;28;44687;-62
2022/09/25 06:45:50;;;;;;;;;;;19.70;47.00;;;;;;4876443;29;45670;-60
2022/09/25 06:48:15;;;;;;;;;;;19.70;46.90;;;;;;4877028;29;45311;-61
2022/09/25 06:50:41;;;;;;;;;;;19.70;46.90;;;;;;4875948;28;46275;-62
2022/09/25 06:53:07;;;;;;;;;;;19.70;46.90;;;;;;4876773;29;46300;-61
2022/09/25 06:55:36;;;;;;;;;;;19.70;46.90;;;;;;4873913;29;45274;-61
2022/09/25 06:58:03;;;;;;;;;;;19.70;46.90;;;;;;4872386;29;45619;-61
2022/09/25 07:00:28;;;;;;;;;;;19.70;46.90;;;;;;4869021;28;44682;-62
2022/09/25 07:05:41;;;;;;;;;;;19.70;46.90;;;;;;4895029;28;44791;-61
2022/09/25 07:08:07;;;;;;;;;;;19.70;46.90;;;;;;4892062;28;46202;-61
2022/09/25 07:10:32;;;;;;;;;;;19.70;46.90;;;;;;4874463;28;45646;-62
2022/09/25 07:12:58;;;;;;;;;;;19.70;46.90;;;;;;4894329;28;45586;-61
2022/09/25 07:15:23;;;;;;;;;;;19.70;46.90;;;;;;4892280;28;46262;-61
2022/09/25 07:17:49;;;;;;;;;;;19.70;47.00;;;;;;4891608;28;45662;-61
2022/09/25 07:20:15;;;;;;;;;;;19.70;46.90;;;;;;4893646;28;46189;-61
2022/09/25 07:22:41;;;;;;;;;;;19.70;46.90;;;;;;4892982;28;44611;-61
2022/09/25 07:25:07;;;;;;;;;;;19.70;46.90;;;;;;4893877;28;44890;-62
2022/09/25 07:27:32;;;;;;;;;;;19.70;46.90;;;;;;4892081;28;46218;-62
2022/09/25 07:29:58;;;;;;;;;;;19.70;46.90;;;;;;4888513;28;46329;-61
2022/09/25 07:32:23;;;;;;;;;;;19.70;46.90;;;;;;4893846;28;45986;-61
2022/09/25 07:34:49;;;;;;;;;;;19.70;46.90;;;;;;4896867;28;45835;-61
2022/09/25 07:37:15;;;;;;;;;;;19.70;46.90;;;;;;4872337;28;47259;-61
2022/09/25 07:39:41;;;;;;;;;;;19.70;46.90;;;;;;4893308;28;45795;-60
2022/09/25 07:42:07;;;;;;;;;;;19.70;46.90;;;;;;4878411;28;45412;-61
2022/09/25 07:44:32;;;;;;;;;;;19.70;47.00;;;;;;4894736;28;45550;-59
2022/09/25 07:47:00;;;;;;;;;;;19.70;47.00;;;;;;4894675;28;46245;-61
2022/09/25 07:49:25;;;;;;;;;;;19.70;47.00;;;;;;4893838;28;45272;-61
2022/09/25 07:51:51;;;;;;;;;;;19.70;47.00;;;;;;4893434;28;46067;-61
2022/09/25 07:54:16;;;;;;;;;;;19.60;47.00;;;;;;4899343;28;44846;-61
2022/09/25 07:56:42;;;;;;;;;;;19.70;47.00;;;;;;4898496;28;46056;-61
2022/09/25 07:59:07;;;;;;;;;;;19.70;47.10;;;;;;4898015;28;45352;-61
2022/09/25 08:01:33;;;;;;;;;;;19.70;47.00;;;;;;4897095;28;45822;-61
2022/09/25 08:03:58;;;;;;;;;;;19.70;47.00;;;;;;4893919;28;45535;-60
2022/09/25 08:06:24;;;;;;;;;;;19.70;47.10;;;;;;4896365;28;46709;-61
2022/09/25 08:08:49;;;;;;;;;;;19.70;47.00;;;;;;4898953;28;45297;-62
2022/09/25 08:11:15;;;;;;;;;;;19.70;47.00;;;;;;4895171;28;45795;-60
2022/09/25 08:13:41;;;;;;;;;;;19.70;47.00;;;;;;4880274;28;45821;-61
2022/09/25 08:16:12;;;;;;;;;;;19.70;47.00;;;;;;4897272;28;45787;-61
2022/09/25 08:18:40;;;;;;;;;;;19.70;47.00;;;;;;4898826;28;45454;-61
2022/09/25 08:21:05;;;;;;;;;;;19.70;47.00;;;;;;4897081;28;45723;-60
2022/09/25 08:23:31;;;;;;;;;;;19.70;47.00;;;;;;4899514;28;47127;-60
2022/09/25 08:25:57;;;;;;;;;;;19.70;47.00;;;;;;4894816;28;46149;-60
2022/09/25 08:28:22;;;;;;;;;;;19.70;47.00;;;;;;4896293;28;45631;-61
2022/09/25 08:30:48;;;;;;;;;;;19.70;47.00;;;;;;4887402;28;45676;-61
2022/09/25 08:33:14;;;;;;;;;;;19.70;47.60;;;;;;4889134;28;45499;-61
2022/09/25 08:35:42;;;;;;;;;;;19.70;47.00;;;;;;4895756;28;45875;-61
2022/09/25 08:38:08;;;;;;;;;;;19.70;47.00;;;;;;4896780;28;45941;-61
2022/09/25 08:40:33;;;;;;;;;;;19.70;47.00;;;;;;4891103;28;46104;-61
2022/09/25 08:42:59;;;;;;;;;;;19.70;46.90;;;;;;4897107;28;46092;-61
2022/09/25 08:51:02;;;;;;;;;;;19.70;46.90;;;;;;4893990;28;44860;-62
2022/09/25 08:53:27;;;;;;;;;;;19.70;46.90;;;;;;4881679;28;46349;-61
2022/09/25 08:58:41;;;;;;;;;;;19.70;47.00;;;;;;4896922;28;45389;-62
2022/09/25 09:01:12;;;;;;;;;;;19.70;46.90;;;;;;4893761;28;45843;-61
2022/09/25 09:03:58;;;;;;;;;;;19.70;46.80;;;;;;4880554;28;45353;-61
2022/09/25 09:06:24;;;;;;;;;;;19.70;46.80;;;;;;4885989;28;45979;-62
2022/09/25 09:08:54;;;;;;;;;;;19.70;46.80;;;;;;4896791;28;45238;-61
2022/09/25 09:11:29;;;;;;;;;;;19.70;46.90;;;;;;4879593;28;44774;-61
2022/09/25 09:14:01;;;;;;;;;;;19.70;46.80;;;;;;4888312;28;45645;-61
2022/09/25 09:16:38;;;;;;;;;;;19.70;46.90;;;;;;4877251;28;45672;-60
2022/09/25 09:19:04;;;;;;;;;;;19.70;46.80;;;;;;4891444;28;45732;-61
2022/09/25 09:21:36;;;;;;;;;;;19.80;46.90;;;;;;4896824;28;45344;-61
2022/09/25 09:24:06;;;;;;;;;;;19.80;46.80;;;;;;4893523;28;46356;-60
2022/09/25 09:26:35;;;;;;;;;;;19.80;46.80;;;;;;4895163;28;45922;-61
2022/09/25 09:29:16;;;;;;;;;;;19.80;46.80;;;;;;4880736;28;44791;-61
2022/09/25 09:31:43;;;;;;;;;;;19.80;46.90;;;;;;4894849;28;45018;-61
2022/09/25 09:34:17;;;;;;;;;;;19.80;46.90;;;;;;4892214;28;44895;-61
2022/09/25 09:36:45;;;;;;;;;;;19.70;46.90;;;;;;4874216;28;46059;-60
2022/09/25 09:39:13;;;;;;;;;;;19.70;46.90;;;;;;4894671;28;46195;-62
2022/09/25 09:42:00;;;;;;;;;;;19.80;46.90;;;;;;4897417;28;45130;-62
2022/09/25 09:44:48;;;;;;;;;;;19.80;46.80;;;;;;4897770;28;46145;-60
2022/09/25 09:47:35;;;;;;;;;;;19.80;46.80;;;;;;4896378;28;45542;-61
2022/09/25 09:50:05;;;;;;;;;;;19.90;46.70;;;;;;4895405;28;45017;-62
2022/09/25 09:52:38;;;;;;;;;;;19.80;46.60;;;;;;4870287;28;45687;-62
2022/09/25 09:55:42;;;;;;;;;;;19.80;46.60;;;;;;4875748;28;44834;-62
2022/09/25 09:58:13;;;;;;;;;;;19.80;46.60;;;;;;4804113;29;46266;-61
2022/09/25 10:00:38;;;;;;;;;;;19.90;46.60;;;;;;4787947;29;45516;-61
2022/09/25 10:03:09;;;;;;;;;;;19.90;46.60;;;;;;4847559;28;45024;-61
2022/09/25 10:05:42;;;;;;;;;;;19.90;46.60;;;;;;4875828;28;45429;-61
2022/09/25 10:08:10;;;;;;;;;;;19.90;46.50;;;;;;4876385;28;48098;-61
2022/09/25 10:10:40;;;;;;;;;;;19.90;46.50;;;;;;4879669;28;45309;-60
2022/09/25 10:13:11;;;;;;;;;;;19.90;46.50;;;;;;4896532;28;44793;-61
2022/09/25 10:15:48;;;;;;;;;;;19.90;46.50;;;;;;4874439;28;45957;-61
2022/09/25 10:18:13;;;;;;;;;;;19.90;46.40;;;;;;4892074;28;46029;-62
2022/09/25 10:20:40;;;;;;;;;;;19.90;46.40;;;;;;4875771;28;46114;-61
2022/09/25 10:23:05;;;;;;;;;;;20.00;46.50;;;;;;4877715;28;45785;-62
2022/09/25 10:25:35;;;;;;;;;;;20.00;46.40;;;;;;4879649;28;46201;-61
2022/09/25 10:28:08;;;;;;;;;;;20.00;46.40;;;;;;4893839;28;45490;-62
2022/09/25 10:30:34;;;;;;;;;;;20.00;46.40;;;;;;4888516;28;45874;-62
2022/09/25 10:33:00;;;;;;;;;;;20.00;46.50;;;;;;4866218;28;44731;-61
2022/09/25 10:35:38;;;;;;;;;;;20.00;46.50;;;;;;4874768;28;44867;-61
2022/09/25 10:38:04;;;;;;;;;;;20.00;46.50;;;;;;4893320;28;46728;-61
2022/09/25 10:40:34;;;;;;;;;;;20.00;46.40;;;;;;4867372;28;45219;-60
2022/09/25 10:43:22;;;;;;;;;;;20.00;46.40;;;;;;4886983;28;45744;-61
2022/09/25 10:45:51;;;;;;;;;;;20.00;46.40;;;;;;4893039;28;46190;-61
2022/09/25 10:51:07;;;;;;;;;;;20.00;46.40;;;;;;4892048;28;44922;-62
2022/09/25 10:53:33;;;;;;;;;;;20.00;46.40;;;;;;4891594;28;45679;-62
2022/09/25 10:56:11;;;;;;;;;;;20.10;46.40;;;;;;4891138;28;46198;-61
2022/09/25 10:58:39;;;;;;;;;;;20.00;46.40;;;;;;4887866;28;45242;-61
2022/09/25 11:01:05;;;;;;;;;;;20.00;46.40;;;;;;4893937;28;45379;-62
2022/09/25 11:03:33;;;;;;;;;;;20.00;46.40;;;;;;4878227;28;45955;-61
2022/09/25 11:06:03;;;;;;;;;;;20.10;46.50;;;;;;4869056;28;45474;-61
2022/09/25 11:08:29;;;;;;;;;;;20.10;46.50;;;;;;4879876;28;45977;-61
2022/09/25 11:10:56;;;;;;;;;;;20.10;46.50;;;;;;4873451;28;46225;-62
2022/09/25 11:13:23;;;;;;;;;;;20.10;46.40;;;;;;4892851;28;45403;-61
2022/09/25 11:15:51;;;;;;;;;;;20.10;46.40;;;;;;4895620;28;45207;-61
2022/09/25 11:18:36;;;;;;;;;;;20.10;46.30;;;;;;4892490;28;46027;-62
2022/09/25 11:21:02;;;;;;;;;;;20.10;46.40;;;;;;4894037;28;45733;-60
2022/09/25 11:23:36;;;;;;;;;;;20.10;47.00;;;;;;4893691;28;44743;-60
2022/09/25 11:26:07;;;;;;;;;;;20.10;46.40;;;;;;4890909;28;45864;-60
2022/09/25 11:29:01;;;;;;;;;;;20.10;47.10;;;;;;4875303;28;46020;-61
2022/09/25 11:31:28;;;;;;;;;;;20.20;46.60;;;;;;4858510;28;45429;-61
2022/09/25 11:34:10;;;;;;;;;;;20.10;46.60;;;;;;4894916;28;45108;-62
2022/09/25 11:36:45;;;;;;;;;;;20.10;46.50;;;;;;4875578;28;45098;-60
2022/09/25 11:42:19;;;;;;;;;;;20.10;46.60;;;;;;4891833;28;45277;-60
2022/09/25 11:44:56;;;;;;;;;;;20.10;46.60;;;;;;4893358;28;45435;-60
2022/09/25 11:47:27;;;;;;;;;;;20.10;46.50;;;;;;4889092;28;45478;-60
2022/09/25 11:49:53;;;;;;;;;;;20.10;46.50;;;;;;4895917;28;46015;-59
2022/09/25 11:52:21;;;;;;;;;;;20.10;46.60;;;;;;4875419;28;45367;-60
2022/09/25 11:54:53;;;;;;;;;;;20.10;46.50;;;;;;4894172;28;45264;-61
2022/09/25 11:57:26;;;;;;;;;;;20.10;46.60;;;;;;4876566;28;45513;-62
2022/09/25 12:00:05;;;;;;;;;;;20.10;46.60;;;;;;4888800;28;45987;-60
2022/09/25 12:02:50;;;;;;;;;;;20.10;46.60;;;;;;4874792;28;44607;-61
2022/09/25 12:05:20;;;;;;;;;;;20.10;46.60;;;;;;4876179;28;45341;-61
2022/09/25 12:08:00;;;;;;;;;;;20.20;46.60;;;;;;4877082;28;46044;-60
2022/09/25 12:10:55;;;;;;;;;;;20.20;46.70;;;;;;4892967;28;47499;-60
2022/09/25 12:13:23;;;;;;;;;;;20.20;46.70;;;;;;4880395;28;45861;-60
2022/09/25 12:15:58;;;;;;;;;;;20.20;46.60;;;;;;4892086;28;45899;-60
2022/09/25 12:18:41;;;;;;;;;;;20.20;46.70;;;;;;4873393;28;45701;-59
2022/09/25 12:21:09;;;;;;;;;;;20.20;46.60;;;;;;4880150;28;48308;-60
2022/09/25 12:23:42;;;;;;;;;;;20.20;46.60;;;;;;4894813;28;45820;-60
2022/09/25 12:26:23;;;;;;;;;;;20.20;46.70;;;;;;4874256;28;45323;-60
2022/09/25 12:28:52;;;;;;;;;;;20.20;46.70;;;;;;4889951;28;45647;-59
2022/09/25 12:31:22;;;;;;;;;;;20.20;47.20;;;;;;4881519;28;46202;-60
2022/09/25 12:33:51;;;;;;;;;;;20.20;46.60;;;;;;4875253;28;45436;-59
2022/09/25 12:36:17;;;;;;;;;;;20.20;46.70;;;;;;4872779;28;45364;-60
2022/09/25 12:38:43;;;;;;;;;;;20.10;46.70;;;;;;4891704;28;45007;-59
2022/09/25 12:41:11;;;;;;;;;;;20.10;46.80;;;;;;4892632;28;45337;-61
2022/09/25 12:43:40;;;;;;;;;;;20.10;46.70;;;;;;4893315;28;45153;-60
2022/09/25 12:46:12;;;;;;;;;;;20.10;46.70;;;;;;4871685;28;45322;-62
2022/09/25 12:48:57;;;;;;;;;;;20.20;46.80;;;;;;4879346;28;45155;-61
2022/09/25 12:51:28;;;;;;;;;;;20.10;46.70;;;;;;4893255;28;46332;-60
2022/09/25 12:53:58;;;;;;;;;;;20.10;46.70;;;;;;4890300;28;45297;-60
2022/09/25 12:56:26;;;;;;;;;;;20.10;46.70;;;;;;4893665;28;45006;-59
2022/09/25 12:58:56;;;;;;;;;;;20.10;46.80;;;;;;4891768;28;45772;-61
2022/09/25 13:01:21;;;;;;;;;;;20.10;46.80;;;;;;4891344;28;47137;-61
2022/09/25 13:03:56;;;;;;;;;;;20.10;46.80;;;;;;4891645;28;45770;-61
2022/09/25 13:06:22;;;;;;;;;;;20.10;46.90;;;;;;4891972;28;45903;-61
2022/09/25 13:08:51;;;;;;;;;;;20.10;46.90;;;;;;4894888;28;45652;-61
2022/09/25 13:11:38;;;;;;;;;;;20.10;47.00;;;;;;4880082;28;46310;-59
2022/09/25 13:14:04;;;;;;;;;;;20.10;47.00;;;;;;4892055;28;45817;-60
2022/09/25 13:16:30;;;;;;;;;;;20.10;46.90;;;;;;4878299;28;44846;-60
2022/09/25 13:19:10;;;;;;;;;;;20.10;46.80;;;;;;4892799;28;45645;-61
2022/09/25 13:21:36;;;;;;;;;;;20.10;46.80;;;;;;4888421;28;47036;-60
2022/09/25 13:24:03;;;;;;;;;;;20.10;46.80;;;;;;4894827;28;45286;-61
2022/09/25 13:26:30;;;;;;;;;;;20.10;46.80;;;;;;4876341;28;45855;-61
2022/09/25 13:29:19;;;;;;;;;;;20.20;46.80;;;;;;4871138;28;45329;-59
2022/09/25 13:31:45;;;;;;;;;;;20.20;46.80;;;;;;4878038;28;46241;-61
2022/09/25 13:34:12;;;;;;;;;;;20.10;46.80;;;;;;4870160;28;45480;-60
2022/09/25 13:36:44;;;;;;;;;;;20.10;46.80;;;;;;4887752;28;46117;-61
2022/09/25 13:42:02;;;;;;;;;;;20.20;46.80;;;;;;4885431;28;45977;-59
2022/09/25 13:44:39;;;;;;;;;;;20.20;46.80;;;;;;4884436;28;46183;-61
2022/09/25 13:47:22;;;;;;;;;;;20.10;46.80;;;;;;4885114;28;46147;-63
2022/09/25 13:49:49;;;;;;;;;;;20.20;46.80;;;;;;4889226;28;45543;-60
2022/09/25 13:52:27;;;;;;;;;;;20.20;46.80;;;;;;4865566;28;46153;-60
2022/09/25 13:55:06;;;;;;;;;;;20.20;46.80;;;;;;4888021;28;45520;-61
2022/09/25 13:57:50;;;;;;;;;;;20.20;46.80;;;;;;4877361;28;45618;-60
2022/09/25 14:00:16;;;;;;;;;;;20.20;46.80;;;;;;4888426;28;46521;-60
2022/09/25 14:02:42;;;;;;;;;;;20.10;46.80;;;;;;4891364;28;46067;-60
2022/09/25 14:05:08;;;;;;;;;;;20.20;46.80;;;;;;4891709;28;45576;-61
2022/09/25 14:07:34;;;;;;;;;;;20.20;46.80;;;;;;4871118;28;45085;-59
2022/09/25 14:09:59;;;;;;;;;;;20.20;46.80;;;;;;4890294;28;45503;-60
2022/09/25 14:12:25;;;;;;;;;;;20.20;46.80;;;;;;4893049;28;46258;-61
2022/09/25 14:14:54;;;;;;;;;;;20.20;46.80;;;;;;4891829;28;45971;-61
2022/09/25 14:17:20;;;;;;;;;;;20.20;46.90;;;;;;4885260;28;45907;-60
2022/09/25 14:19:47;;;;;;;;;;;20.10;46.80;;;;;;4878496;28;45348;-61
2022/09/25 14:22:38;;;;;;;;;;;20.20;46.90;;;;;;4878942;28;46080;-61
2022/09/25 14:25:22;;;;;;;;;;;20.20;46.90;;;;;;4881961;28;46215;-62
2022/09/25 14:27:49;;;;;;;;;;;20.10;46.90;;;;;;4886388;28;46494;-60
2022/09/25 14:30:15;;;;;;;;;;;20.10;46.90;;;;;;4891660;28;45474;-61
2022/09/25 14:32:47;;;;;;;;;;;20.10;46.90;;;;;;4892071;28;45443;-62
2022/09/25 14:35:18;;;;;;;;;;;20.10;46.90;;;;;;4895859;28;45486;-62
2022/09/25 14:38:06;;;;;;;;;;;20.10;46.90;;;;;;4876142;28;46373;-62
2022/09/25 14:40:35;;;;;;;;;;;20.10;46.90;;;;;;4896060;28;45901;-59
2022/09/25 14:43:04;;;;;;;;;;;20.10;46.90;;;;;;4890421;28;46163;-61
2022/09/25 14:45:48;;;;;;;;;;;20.10;46.90;;;;;;4895179;28;46173;-60
2022/09/25 14:48:17;;;;;;;;;;;20.20;47.00;;;;;;4893621;28;46133;-60
2022/09/25 14:50:45;;;;;;;;;;;20.20;46.90;;;;;;4876213;28;45137;-60
2022/09/25 14:53:12;;;;;;;;;;;20.10;46.80;;;;;;4895259;28;45192;-59
2022/09/25 14:55:38;;;;;;;;;;;20.10;46.80;;;;;;4878019;28;45714;-61
2022/09/25 14:58:08;;;;;;;;;;;20.20;46.80;;;;;;4888542;28;46378;-61
2022/09/25 15:00:33;;;;;;;;;;;20.10;46.90;;;;;;4894769;28;45525;-61
2022/09/25 15:02:58;;;;;;;;;;;20.10;47.00;;;;;;4891186;28;46098;-61
2022/09/25 15:05:28;;;;;;;;;;;20.10;47.00;;;;;;4875651;28;45878;-61
2022/09/25 15:07:55;;;;;;;;;;;20.10;46.90;;;;;;4894156;28;46061;-61
2022/09/25 15:10:32;;;;;;;;;;;20.20;46.90;;;;;;4895036;28;45613;-61
2022/09/25 15:13:04;;;;;;;;;;;20.10;46.90;;;;;;4893280;28;45135;-62
2022/09/25 15:15:30;;;;;;;;;;;20.10;46.90;;;;;;4891682;28;44650;-61
2022/09/25 15:17:58;;;;;;;;;;;20.10;47.00;;;;;;4877994;28;45691;-60
2022/09/25 15:20:24;;;;;;;;;;;20.10;47.00;;;;;;4888826;28;45471;-61
2022/09/25 15:22:52;;;;;;;;;;;20.10;47.00;;;;;;4873529;28;45979;-58
2022/09/25 15:25:28;;;;;;;;;;;20.10;47.10;;;;;;4895205;28;45443;-60
2022/09/25 15:27:53;;;;;;;;;;;20.10;47.10;;;;;;4872647;28;45970;-62
2022/09/25 15:30:19;;;;;;;;;;;20.10;47.00;;;;;;4893987;28;45350;-61
2022/09/25 15:32:50;;;;;;;;;;;20.10;47.00;;;;;;4894072;28;46390;-61
2022/09/25 15:35:18;;;;;;;;;;;20.10;47.00;;;;;;4891230;28;45345;-60
2022/09/25 15:37:44;;;;;;;;;;;20.10;47.00;;;;;;4893667;28;45621;-59
2022/09/25 15:40:15;;;;;;;;;;;20.10;47.00;;;;;;4891405;28;45232;-62
2022/09/25 15:42:44;;;;;;;;;;;20.10;47.00;;;;;;4892658;28;46095;-61
2022/09/25 15:45:26;;;;;;;;;;;20.10;46.90;;;;;;4893763;28;45408;-61
2022/09/25 15:47:52;;;;;;;;;;;20.10;46.90;;;;;;4876993;28;45425;-62
2022/09/25 15:50:20;;;;;;;;;;;20.10;47.00;;;;;;4895253;28;44656;-61
2022/09/25 15:52:48;;;;;;;;;;;20.10;46.90;;;;;;4898618;28;46411;-60
2022/09/25 15:55:14;;;;;;;;;;;20.20;47.00;;;;;;4895937;28;45708;-62
2022/09/25 15:57:39;;;;;;;;;;;20.20;47.00;;;;;;4872637;28;45542;-61
2022/09/25 16:05:38;;;;;;;;;;;20.10;46.90;;;;;;4877872;28;45687;-61
2022/09/25 16:08:13;;;;;;;;;;;20.20;47.00;;;;;;4878133;28;45186;-61
2022/09/25 16:10:39;;;;;;;;;;;20.10;47.00;;;;;;4897171;28;45068;-60
2022/09/25 16:13:04;;;;;;;;;;;20.10;47.00;;;;;;4897753;28;46143;-64
2022/09/25 16:15:38;;;;;;;;;;;20.10;46.90;;;;;;4898180;28;45269;-61
2022/09/25 16:18:20;;;;;;;;;;;20.10;46.90;;;;;;4878978;28;46436;-61
2022/09/25 16:20:45;;;;;;;;;;;20.10;47.00;;;;;;4897353;28;44898;-60
2022/09/25 16:23:20;;;;;;;;;;;20.10;47.00;;;;;;4882318;28;46046;-60
2022/09/25 16:25:45;;;;;;;;;;;20.10;47.00;;;;;;4884798;28;45657;-62
2022/09/25 16:28:18;;;;;;;;;;;20.10;47.00;;;;;;4892944;28;45364;-59
2022/09/25 16:30:59;;;;;;;;;;;20.10;47.00;;;;;;4874978;28;46328;-61
2022/09/25 16:33:32;;;;;;;;;;;20.10;47.00;;;;;;4891217;28;46244;-60
2022/09/25 16:35:58;;;;;;;;;;;20.10;47.00;;;;;;4890448;28;45269;-61
2022/09/25 16:38:24;;;;;;;;;;;20.10;47.00;;;;;;4891347;28;44716;-60
2022/09/25 16:41:01;;;;;;;;;;;20.10;47.00;;;;;;4879961;28;46062;-61
2022/09/25 16:43:26;;;;;;;;;;;20.10;47.10;;;;;;4896366;28;47043;-60
2022/09/25 16:45:56;;;;;;;;;;;20.10;47.00;;;;;;4892302;28;44762;-61
2022/09/25 16:48:29;;;;;;;;;;;20.10;47.10;;;;;;4896889;28;45022;-61
2022/09/25 16:50:56;;;;;;;;;;;20.10;47.10;;;;;;4896025;28;45498;-59
2022/09/25 16:53:24;;;;;;;;;;;20.10;47.10;;;;;;4895464;28;47071;-60
2022/09/25 16:55:52;;;;;;;;;;;20.10;47.10;;;;;;4880350;28;45662;-60
2022/09/25 16:58:17;;;;;;;;;;;20.10;47.10;;;;;;4893008;28;45961;-59
2022/09/25 17:00:43;;;;;;;;;;;20.10;47.10;;;;;;4895739;28;45335;-60
2022/09/25 17:03:09;;;;;;;;;;;20.10;47.10;;;;;;4875182;28;46845;-59
2022/09/25 17:05:35;;;;;;;;;;;20.10;47.00;;;;;;4896510;28;45019;-61
2022/09/25 17:08:04;;;;;;;;;;;20.10;47.00;;;;;;4895862;28;45536;-61
2022/09/25 17:10:31;;;;;;;;;;;20.10;47.00;;;;;;4891813;28;45269;-59
2022/09/25 17:12:58;;;;;;;0.75;0.70;;;20.10;47.00;;;;;;4896938;28;45269;-60
2022/09/25 17:15:28;;;;;;;2.90;1.25;;;20.10;46.90;;;;;;4878546;28;45068;-59
2022/09/25 17:17:54;;;;;;;8.30;1.60;;;20.10;46.80;;;;;;4866212;28;45293;-60
2022/09/25 17:20:23;;;;;;;1.52;1.17;;;20.30;46.80;;;;;;4894464;28;46137;-60
2022/09/25 17:22:50;;;;;;;4.32;1.20;;;20.20;46.90;;;;;;4895131;28;46060;-60
2022/09/25 17:25:35;;;;;;;3.65;1.45;;;20.20;47.00;;;;;;4895503;28;45398;-61
2022/09/25 17:28:02;;;;;;;3.22;1.50;;;20.20;47.00;;;;;;4874330;28;45105;-60
2022/09/25 17:30:27;;;;;;;1.55;1.00;;;20.20;47.00;;;;;;4892488;28;45553;-61
2022/09/25 17:32:53;;;;;;;3.55;1.15;;;20.10;46.90;;;;;;4891184;28;45578;-62
2022/09/25 17:35:54;;;;;;;1.80;1.02;;;20.20;47.00;;;;;;4894388;28;45390;-59
2022/09/25 17:38:20;;;;;;;1.67;1.05;;;20.20;46.90;;;;;;4892504;28;44815;-61
2022/09/25 17:40:47;;;;;;;3.63;1.30;;;20.10;46.90;;;;;;4878819;28;45021;-61
2022/09/25 17:43:13;;;;;;;2.25;1.17;;;20.10;46.90;;;;;;4856544;28;45552;-60
2022/09/25 17:45:44;;;;;;;1.67;1.30;;;20.10;47.00;;;;;;4891699;28;45578;-62
2022/09/25 17:48:10;;;;;;;1.35;0.80;;;20.10;47.00;;;;;;4875086;28;45987;-63
2022/09/25 17:50:37;;;;;;;1.30;0.90;;;20.10;47.00;;;;;;4896848;28;45519;-61
2022/09/25 17:53:06;;;;;;;7.32;1.40;;;20.10;47.00;;;;;;4890887;28;45891;-61